This is the latest recevied weather packets stored in our database for station/object SQ6PCH-10. If no packets are shown the sender has not sent any weather packets the latest 1 day(s).
| Time | Temp. | Humidity | Pressure | Rain* | Wind** | Luminosity | Snow |
|---|---|---|---|---|---|---|---|
| 1778031571 | 11.67° C | 78% | 989.9 hPa | - | - | - | - |
| 1778030971 | 11.67° C | 77% | 989.9 hPa | - | - | - | - |
| 1778030371 | 11.67° C | 77% | 990 hPa | - | - | - | - |
| 1778029771 | 11.67° C | 76% | 989.9 hPa | - | - | - | - |
| 1778029170 | 11.67° C | 76% | 990 hPa | - | - | - | - |
| 1778028570 | 12.22° C | 75% | 990 hPa | - | - | - | - |
| 1778027970 | 12.22° C | 75% | 989.9 hPa | - | - | - | - |
| 1778027370 | 12.22° C | 75% | 989.7 hPa | - | - | - | - |
| 1778026770 | 12.22° C | 75% | 989.7 hPa | - | - | - | - |
| 1778026170 | 12.22° C | 75% | 989.8 hPa | - | - | - | - |
| 1778022569 | 12.78° C | 70% | 989.9 hPa | - | - | - | - |
| 1778018968 | 13.89° C | 66% | 990.1 hPa | - | - | - | - |
| 1778015967 | 15.56° C | 64% | 990.4 hPa | - | - | - | - |
| 1778015367 | 16.11° C | 63% | 990.3 hPa | - | - | - | - |
| 1778014767 | 16.11° C | 63% | 990.3 hPa | - | - | - | - |
| 1778012966 | 16.67° C | 66% | 990.4 hPa | - | - | - | - |
| 1778012366 | 16.67° C | 68% | 990.4 hPa | - | - | - | - |
| 1778011766 | 16.67° C | 69% | 990.5 hPa | - | - | - | - |
| 1778008165 | 18.33° C | 68% | 990.9 hPa | - | - | - | - |
| 1778006964 | 19.44° C | 59% | 991 hPa | - | - | - | - |
| 1778005164 | 20° C | 58% | 990.3 hPa | - | - | - | - |
| 1778004564 | 20.56° C | 58% | 990.2 hPa | - | - | - | - |
| 1778002162 | 21.67° C | 51% | 990.1 hPa | - | - | - | - |
| 1778001562 | 22.22° C | 50% | 990 hPa | - | - | - | - |
| 1778000962 | 22.78° C | 47% | 989.9 hPa | - | - | - | - |
* Rain since midnight (hover to see other rain measurements)
** Current wind speed in m/s (hover to see current wind gust speed)